Zemple, Minnesota
Current Conditions -  °F | °C
As of 2:13 PM on Monday 24 Nov 2014 (Local Time) from KFOZ Reporting Station
Light Snow Light Snow  
Wind Chill:   Ceiling: 1900
Heat Index: 16°   Visibility: 3mi
Dew Point: 10°   Wind: 9mph
Humidity: 79%   Direction: 330°NNW
Pressure: 29.58"   Gusts: NA
Location:  47.4603°N, 94.029°W
Report Text: KFOZ 242013Z AUTO 33008KT 3SM -SN SCT013 BKN019 OVC028 M09/M12 A2958 RMK AO2 TSNO
Loading
Personal Weather Stations






























Interactive Weather Map New forecast layout! Learn more

10-Day Weather Forecast

Advertisements
Track Severe Weather on mobile